Time;durP1;ratioP1;P1;durP2;ratioP2;P2;SDS_P1;SDS_P2;PMS_P1;PMS_P2;Temp;Humidity;BMP_temperature;BMP_pressure;BME280_temperature;BME280_humidity;BME280_pressure;Samples;Min_cycle;Max_cycle;Signal;HPM_P1;HPM_P2
2023/03/19 10:56:07;;;;;;;;;31.00;28.00;;;;;;;;5104583;27;13415;-79
2023/03/19 10:58:34;;;;;;;;;34.50;27.75;;;;;;;;5104283;28;13531;-77
2023/03/19 11:01:02;;;;;;;;;27.75;27.75;;;;;;;;5104171;28;13511;-81
2023/03/19 11:03:30;;;;;;;;;32.00;26.50;;;;;;;;5104389;28;13550;-80
2023/03/19 11:06:06;;;;;;;;;28.25;26.00;;;;;;;;5103690;28;13628;-80
2023/03/19 11:08:40;;;;;;;;;29.25;27.75;;;;;;;;5103314;28;14363;-76
2023/03/19 11:11:06;;;;;;;;;30.25;27.00;;;;;;;;5102786;28;13558;-73
2023/03/19 11:13:33;;;;;;;;;43.33;38.67;;;;;;;;5103650;28;13514;-73
2023/03/19 11:15:59;;;;;;;;;43.25;37.50;;;;;;;;5102357;28;13586;-74
2023/03/19 11:18:36;;;;;;;;;32.00;31.00;;;;;;;;5103508;28;13540;-72
2023/03/19 11:21:20;;;;;;;;;41.40;34.60;;;;;;;;5101815;28;13570;-75
2023/03/19 11:23:50;;;;;;;;;37.00;32.67;;;;;;;;5103913;28;13502;-75
2023/03/19 11:26:18;;;;;;;;;41.60;35.60;;;;;;;;5103804;28;14199;-75
2023/03/19 11:28:43;;;;;;;;;37.50;32.25;;;;;;;;5104135;28;13651;-74
2023/03/19 11:31:18;;;;;;;;;33.25;32.00;;;;;;;;5103709;28;13625;-74
2023/03/19 11:33:43;;;;;;;;;37.80;34.20;;;;;;;;5103049;28;13588;-79
2023/03/19 11:36:09;;;;;;;;;35.00;34.00;;;;;;;;5100383;28;13647;-76
2023/03/19 11:38:35;;;;;;;;;47.75;38.50;;;;;;;;5102333;28;13672;-74
2023/03/19 11:41:23;;;;;;;;;43.25;39.50;;;;;;;;5103589;28;13533;-77
2023/03/19 11:44:06;;;;;;;;;40.00;39.00;;;;;;;;5097637;27;13547;-75
2023/03/19 11:46:35;;;;;;;;;40.60;38.20;;;;;;;;5101636;28;13517;-76
2023/03/19 11:49:19;;;;;;;;;68.80;56.80;;;;;;;;5100826;28;14288;-77
2023/03/19 11:51:47;;;;;;;;;78.50;63.75;;;;;;;;5099335;27;14959;-76
2023/03/19 11:54:21;;;;;;;;;80.50;64.25;;;;;;;;5100158;28;13600;-77
2023/03/19 11:56:58;;;;;;;;;58.50;46.50;;;;;;;;5099211;28;13575;-77
2023/03/19 11:59:24;;;;;;;;;57.25;46.00;;;;;;;;5101838;28;13552;-78
2023/03/19 12:02:12;;;;;;;;;46.75;41.00;;;;;;;;5102352;28;13520;-77
2023/03/19 12:04:44;;;;;;;;;41.00;39.00;;;;;;;;5091185;28;14328;-77
2023/03/19 12:07:10;;;;;;;;;46.80;40.20;;;;;;;;5090949;28;14646;-79
2023/03/19 12:09:41;;;;;;;;;46.00;42.00;;;;;;;;5089458;28;13634;-74
2023/03/19 12:12:22;;;;;;;;;38.25;36.50;;;;;;;;5089388;28;14291;-80
2023/03/19 12:14:53;;;;;;;;;43.25;40.75;;;;;;;;5087929;28;13689;-76
2023/03/19 12:17:38;;;;;;;;;36.75;36.25;;;;;;;;5088904;28;13593;-79
2023/03/19 12:20:03;;;;;;;;;45.20;39.40;;;;;;;;5088645;28;13550;-81
2023/03/19 12:22:47;;;;;;;;;52.33;41.67;;;;;;;;5087762;28;13537;-74
2023/03/19 12:25:21;;;;;;;;;48.00;42.50;;;;;;;;5087921;28;13547;-78
2023/03/19 12:28:07;;;;;;;;;50.00;42.00;;;;;;;;5087445;28;13613;-78
2023/03/19 12:30:32;;;;;;;;;66.75;53.50;;;;;;;;5083562;28;13629;-78
2023/03/19 12:33:08;;;;;;;;;51.00;43.25;;;;;;;;5087224;28;14444;-78
2023/03/19 12:35:34;;;;;;;;;64.75;52.75;;;;;;;;5086390;28;13558;-75
2023/03/19 12:38:05;;;;;;;;;80.20;59.80;;;;;;;;5087247;28;13546;-75
2023/03/19 12:40:34;;;;;;;;;67.60;53.60;;;;;;;;5088757;28;13701;-80
2023/03/19 12:43:02;;;;;;;;;64.50;51.00;;;;;;;;5088923;28;13533;-77
2023/03/19 12:45:54;;;;;;;;;68.00;54.00;;;;;;;;5088568;28;13565;-75
2023/03/19 12:48:25;;;;;;;;;57.50;45.00;;;;;;;;5080004;28;13557;-74
2023/03/19 12:50:53;;;;;;;;;55.40;44.80;;;;;;;;5087945;28;13521;-77
2023/03/19 12:53:25;;;;;;;;;53.25;43.75;;;;;;;;5109510;28;13586;-75
2023/03/19 12:55:54;;;;;;;;;51.75;42.50;;;;;;;;5107577;27;13691;-81
2023/03/19 12:58:24;;;;;;;;;44.60;41.00;;;;;;;;5108970;28;14435;-82
2023/03/19 13:00:58;;;;;;;;;42.50;39.50;;;;;;;;5108333;28;13610;-82
2023/03/19 13:03:28;;;;;;;;;52.40;44.20;;;;;;;;5108876;28;14317;-83
2023/03/19 13:05:58;;;;;;;;;114.00;99.75;;;;;;;;5105622;28;14374;-81
2023/03/19 13:08:41;;;;;;;;;118.25;107.00;;;;;;;;5108607;28;13748;-80
2023/03/19 13:11:12;;;;;;;;;67.00;52.50;;;;;;;;5106749;28;13720;-77
2023/03/19 13:13:57;;;;;;;;;71.80;55.60;;;;;;;;5094692;28;13632;-75
2023/03/19 13:16:29;;;;;;;;;89.00;67.33;;;;;;;;5088298;28;14564;-73
2023/03/19 13:19:18;;;;;;;;;61.50;50.50;;;;;;;;5087160;28;13505;-76
2023/03/19 13:21:44;;;;;;;;;50.20;42.40;;;;;;;;5087797;28;13637;-75
2023/03/19 13:24:09;;;;;;;;;44.25;40.25;;;;;;;;5087849;28;13579;-76
2023/03/19 13:26:35;;;;;;;;;38.75;37.00;;;;;;;;5086045;28;13568;-76
2023/03/19 13:29:06;;;;;;;;;36.33;36.00;;;;;;;;5088319;28;13691;-75
2023/03/19 13:31:37;;;;;;;;;38.25;35.50;;;;;;;;5086707;28;14446;-75
2023/03/19 13:34:02;;;;;;;;;38.00;35.25;;;;;;;;5086425;28;13548;-77
2023/03/19 13:36:29;;;;;;;;;42.00;37.00;;;;;;;;5087508;28;13545;-77
2023/03/19 13:38:56;;;;;;;;;40.00;35.25;;;;;;;;5087567;28;14335;-76
2023/03/19 13:41:34;;;;;;;;;35.00;33.75;;;;;;;;5087542;28;13549;-81
2023/03/19 13:44:17;;;;;;;;;38.75;30.00;;;;;;;;5087515;28;13660;-76
2023/03/19 13:46:45;;;;;;;;;37.20;35.00;;;;;;;;5087655;28;14271;-80
2023/03/19 13:49:20;;;;;;;;;37.67;34.33;;;;;;;;5087296;28;13596;-78
2023/03/19 13:51:48;;;;;;;;;49.00;38.00;;;;;;;;5087680;28;13404;-75
2023/03/19 13:54:31;;;;;;;;;39.50;35.75;;;;;;;;5086966;28;13534;-77
2023/03/19 13:57:00;;;;;;;;;40.00;39.00;;;;;;;;5087281;28;13493;-73
2023/03/19 13:59:28;;;;;;;;;42.00;38.75;;;;;;;;5086747;28;13529;-73
2023/03/19 14:01:54;;;;;;;;;36.25;35.50;;;;;;;;5089198;28;13541;-77
2023/03/19 14:04:26;;;;;;;;;41.25;37.75;;;;;;;;5084740;28;13508;-76
2023/03/19 14:06:54;;;;;;;;;45.75;35.75;;;;;;;;5085302;28;13445;-75
2023/03/19 14:09:32;;;;;;;;;35.00;34.50;;;;;;;;5085298;28;13514;-78
2023/03/19 14:12:15;;;;;;;;;47.00;39.33;;;;;;;;5084854;28;13550;-74
2023/03/19 14:15:01;;;;;;;;;41.00;39.00;;;;;;;;5064880;28;13563;-71
2023/03/19 14:17:31;;;;;;;;;40.67;39.33;;;;;;;;5065205;28;13540;-72
2023/03/19 14:20:02;;;;;;;;;40.00;37.75;;;;;;;;5066917;28;13604;-71
2023/03/19 14:22:51;;;;;;;;;38.80;36.80;;;;;;;;5066328;28;14288;-72
2023/03/19 14:25:21;;;;;;;;;48.80;41.80;;;;;;;;5063693;28;13576;-71
2023/03/19 14:27:54;;;;;;;;;43.50;40.00;;;;;;;;5066667;28;14365;-71
2023/03/19 14:30:30;;;;;;;;;39.75;34.50;;;;;;;;5079022;22;14391;-69
2023/03/19 14:32:57;;;;;;;;;37.50;35.50;;;;;;;;5045690;28;14270;-70
2023/03/19 14:35:24;;;;;;;;;31.50;31.50;;;;;;;;5045615;28;13632;-69
2023/03/19 14:37:51;;;;;;;;;39.00;35.75;;;;;;;;5044234;28;13666;-70
2023/03/19 14:40:31;;;;;;;;;37.40;33.80;;;;;;;;5045240;28;13535;-70
2023/03/19 14:43:27;;;;;;;;;38.40;36.00;;;;;;;;5052939;28;14426;-70
2023/03/19 14:45:59;;;;;;;;;39.75;38.00;;;;;;;;5028408;28;13811;-70
2023/03/19 14:48:43;;;;;;;;;42.60;39.00;;;;;;;;5065469;28;15288;-70
2023/03/19 14:51:27;;;;;;;;;42.25;37.25;;;;;;;;5064129;28;13652;-68
2023/03/19 14:53:55;;;;;;;;;47.60;37.60;;;;;;;;5063808;28;13698;-69
2023/03/19 14:56:22;;;;;;;;;40.75;38.50;;;;;;;;5065290;28;13519;-69
2023/03/19 14:58:49;;;;;;;;;35.25;32.00;;;;;;;;5064908;28;14070;-69
2023/03/19 15:01:14;;;;;;;;;40.25;35.00;;;;;;;;5065403;28;13585;-69
2023/03/19 15:03:40;;;;;;;;;40.00;35.00;;;;;;;;5065598;28;13749;-69
2023/03/19 15:06:06;;;;;;;;;40.50;31.25;;;;;;;;5065387;28;13555;-69
2023/03/19 15:08:35;;;;;;;;;34.60;31.00;;;;;;;;5065542;28;13528;-69
2023/03/19 15:11:06;;;;;;;;;41.50;33.50;;;;;;;;5065345;28;13505;-70
2023/03/19 15:13:50;;;;;;;;;70.80;57.00;;;;;;;;5065133;28;13518;-68
2023/03/19 15:16:21;;;;;;;;;84.00;67.67;;;;;;;;5065122;28;13517;-69
2023/03/19 15:18:47;;;;;;;;;84.00;69.75;;;;;;;;5064894;28;13541;-68
2023/03/19 15:21:13;;;;;;;;;61.25;50.00;;;;;;;;5064038;28;13580;-68
2023/03/19 15:23:39;;;;;;;;;47.50;41.00;;;;;;;;5065227;28;13501;-69
2023/03/19 15:26:10;;;;;;;;;45.50;40.00;;;;;;;;5065274;28;14294;-69
2023/03/19 15:28:46;;;;;;;;;51.25;39.00;;;;;;;;5065312;28;14310;-71
2023/03/19 15:31:11;;;;;;;;;47.75;40.25;;;;;;;;5065320;28;13544;-70
2023/03/19 15:33:38;;;;;;;;;46.50;41.00;;;;;;;;5064910;28;13503;-68
2023/03/19 15:36:03;;;;;;;;;45.25;39.00;;;;;;;;5064917;28;13592;-69
2023/03/19 15:38:32;;;;;;;;;46.50;38.00;;;;;;;;5065106;28;13561;-69
2023/03/19 15:40:57;;;;;;;;;45.80;38.80;;;;;;;;5064277;28;13528;-69
2023/03/19 15:43:24;;;;;;;;;37.00;35.75;;;;;;;;5068821;28;13542;-69
2023/03/19 15:45:51;;;;;;;;;40.40;36.40;;;;;;;;5068593;28;14346;-69
2023/03/19 15:48:20;;;;;;;;;36.25;34.00;;;;;;;;5068608;28;13524;-68
2023/03/19 15:50:47;;;;;;;;;47.00;37.00;;;;;;;;5068406;28;13513;-69
2023/03/19 15:53:15;;;;;;;;;41.50;35.75;;;;;;;;5068447;28;13519;-69
2023/03/19 15:55:41;;;;;;;;;38.75;33.50;;;;;;;;5068795;28;13635;-69
2023/03/19 15:58:10;;;;;;;;;39.75;35.75;;;;;;;;5068337;28;13520;-69
2023/03/19 16:00:36;;;;;;;;;34.50;33.75;;;;;;;;5068436;28;14316;-69
2023/03/19 16:03:03;;;;;;;;;39.00;34.00;;;;;;;;5068509;28;13546;-69
2023/03/19 16:05:29;;;;;;;;;43.25;37.00;;;;;;;;5068423;28;14451;-69
2023/03/19 16:08:03;;;;;;;;;43.00;37.00;;;;;;;;5068221;28;13606;-69
2023/03/19 16:10:29;;;;;;;;;37.80;33.80;;;;;;;;5068148;28;13543;-70
2023/03/19 16:12:55;;;;;;;;;36.40;34.60;;;;;;;;5067935;28;13595;-70
2023/03/19 16:15:22;;;;;;;;;38.00;34.50;;;;;;;;5068380;28;13545;-69
2023/03/19 16:17:50;;;;;;;;;54.25;45.00;;;;;;;;5068347;28;13603;-69
2023/03/19 16:20:17;;;;;;;;;40.80;35.60;;;;;;;;5068188;28;13512;-68
2023/03/19 16:22:45;;;;;;;;;42.75;37.75;;;;;;;;5067995;28;14356;-69
2023/03/19 16:25:15;;;;;;;;;41.20;37.00;;;;;;;;5067247;28;14578;-72
2023/03/19 16:27:41;;;;;;;;;39.25;36.25;;;;;;;;5067702;28;13541;-69
2023/03/19 16:30:10;;;;;;;;;39.75;34.00;;;;;;;;5062107;28;13767;-67
2023/03/19 16:32:35;;;;;;;;;40.00;34.75;;;;;;;;5047416;28;14482;-69
2023/03/19 16:35:19;;;;;;;;;41.75;38.25;;;;;;;;5047794;28;13656;-68
2023/03/19 16:37:47;;;;;;;;;49.00;40.00;;;;;;;;5047485;28;14299;-69
2023/03/19 16:40:14;;;;;;;;;43.50;39.00;;;;;;;;5047920;28;13670;-72
2023/03/19 16:42:39;;;;;;;;;43.40;36.80;;;;;;;;5052446;28;13612;-71
2023/03/19 16:45:14;;;;;;;;;43.67;38.33;;;;;;;;5051700;28;13580;-70
2023/03/19 16:47:39;;;;;;;;;38.25;36.00;;;;;;;;5047371;28;14183;-70
2023/03/19 16:50:05;;;;;;;;;48.25;39.50;;;;;;;;5047603;28;14251;-70
2023/03/19 16:52:30;;;;;;;;;47.25;39.50;;;;;;;;5046698;28;13630;-70
2023/03/19 16:54:56;;;;;;;;;44.25;39.50;;;;;;;;5044370;28;14199;-69
2023/03/19 16:57:22;;;;;;;;;36.60;35.20;;;;;;;;5045708;28;13558;-68
2023/03/19 16:59:47;;;;;;;;;34.75;32.25;;;;;;;;5050451;28;8822;-68
2023/03/19 17:02:14;;;;;;;;;44.00;38.25;;;;;;;;5050281;28;8828;-68
2023/03/19 17:04:40;;;;;;;;;49.50;41.50;;;;;;;;5046872;28;14198;-69
2023/03/19 17:07:06;;;;;;;;;43.67;37.33;;;;;;;;5067067;28;13619;-71
2023/03/19 17:09:31;;;;;;;;;43.67;39.67;;;;;;;;5067183;28;13529;-70
2023/03/19 17:11:56;;;;;;;;;46.75;40.75;;;;;;;;5067151;28;13534;-71
2023/03/19 17:14:22;;;;;;;;;36.75;35.75;;;;;;;;5066231;28;8827;-70
2023/03/19 17:16:50;;;;;;;;;43.75;37.75;;;;;;;;5050953;28;8806;-70
2023/03/19 17:19:17;;;;;;;;;50.75;41.50;;;;;;;;5046814;28;13637;-70
2023/03/19 17:21:42;;;;;;;;;51.00;41.25;;;;;;;;5045848;28;13724;-68
2023/03/19 17:24:27;;;;;;;;;63.67;48.00;;;;;;;;5048301;28;8860;-69
2023/03/19 17:26:53;;;;;;;;;68.00;52.67;;;;;;;;5030692;28;8797;-69
2023/03/19 17:29:19;;;;;;;;;54.67;45.00;;;;;;;;5036562;28;8855;-70
2023/03/19 17:31:45;;;;;;;;;63.00;51.50;;;;;;;;5046802;28;13571;-72
2023/03/19 17:34:10;;;;;;;;;64.20;51.00;;;;;;;;5045905;28;13499;-71
2023/03/19 17:36:36;;;;;;;;;60.00;46.67;;;;;;;;5064990;28;13759;-70
2023/03/19 17:39:01;;;;;;;;;;;;;;;;;;5072975;28;8800;-70
2023/03/19 17:41:26;;;;;;;;;60.00;48.00;;;;;;;;5069424;28;8806;-70
2023/03/19 17:43:52;;;;;;;;;52.00;43.00;;;;;;;;5070277;28;8889;-70
2023/03/19 17:46:19;;;;;;;;;52.33;43.67;;;;;;;;5049030;28;8822;-70
2023/03/19 17:48:45;;;;;;;;;53.67;44.33;;;;;;;;5050031;28;8821;-71
2023/03/19 17:51:11;;;;;;;;;54.33;45.00;;;;;;;;5050261;28;8802;-69
2023/03/19 17:53:37;;;;;;;;;52.67;45.00;;;;;;;;5050446;28;8814;-69
2023/03/19 17:56:02;;;;;;;;;60.75;50.50;;;;;;;;5042961;28;14337;-69
2023/03/19 17:58:28;;;;;;;;;56.33;48.00;;;;;;;;5045908;28;13746;-70
2023/03/19 18:00:53;;;;;;;;;59.25;46.25;;;;;;;;5044246;28;13556;-70
2023/03/19 18:03:20;;;;;;;;;56.25;45.25;;;;;;;;5044532;28;13756;-69
2023/03/19 18:05:45;;;;;;;;;47.00;41.00;;;;;;;;5049585;28;8853;-69
2023/03/19 18:08:10;;;;;;;;;;;;;;;;;;5052359;28;11507;-69
2023/03/19 18:10:36;;;;;;;;;51.33;41.00;;;;;;;;5050145;28;8907;-69
2023/03/19 18:13:01;;;;;;;;;;;;;;;;;;5060826;28;8928;-69
2023/03/19 18:15:30;;;;;;;;;49.00;41.33;;;;;;;;5069208;28;8812;-70
2023/03/19 18:17:57;;;;;;;;;41.67;39.33;;;;;;;;5069763;28;8817;-70
2023/03/19 18:20:28;;;;;;;;;49.00;40.67;;;;;;;;5069784;28;11478;-69
2023/03/19 18:22:53;;;;;;;;;;;;;;;;;;5072264;28;11550;-69
2023/03/19 18:25:26;;;;;;;;;45.33;39.00;;;;;;;;5068141;28;8929;-69
2023/03/19 18:27:52;;;;;;;;;;;;;;;;;;5055427;28;8835;-69
2023/03/19 18:30:20;;;;;;;;;;;;;;;;;;5051595;28;7537;-74
2023/03/19 18:32:48;;;;;;;;;;;;;;;;;;5050922;28;7582;-73
2023/03/19 18:35:13;;;;;;;;;;;;;;;;;;5050368;28;7533;-73
2023/03/19 18:37:38;;;;;;;;;;;;;;;;;;5049910;28;7543;-74
2023/03/19 18:40:03;;;;;;;;;;;;;;;;;;5051367;28;7547;-74
2023/03/19 18:42:28;;;;;;;;;;;;;;;;;;5053828;28;7524;-74
2023/03/19 18:44:53;;;;;;;;;;;;;;;;;;5069546;28;7644;-73
2023/03/19 18:47:19;;;;;;;;;;;;;;;;;;5070891;28;7552;-74
2023/03/19 18:49:47;;;;;;;;;40.00;37.75;;;;;;;;5048642;28;7525;-75
2023/03/19 18:52:13;;;;;;;;;44.50;41.25;;;;;;;;5048999;28;13540;-74
2023/03/19 18:54:38;;;;;;;;;58.00;45.25;;;;;;;;5065514;28;13560;-75
2023/03/19 18:57:04;;;;;;;;;46.67;42.33;;;;;;;;5056540;28;13569;-73
2023/03/19 18:59:31;;;;;;;;;45.50;40.00;;;;;;;;5005290;28;13607;-75
2023/03/19 19:02:01;;;;;;;;;35.25;32.00;;;;;;;;5004992;28;13646;-75
2023/03/19 19:04:26;;;;;;;;;28.00;27.25;;;;;;;;5008049;28;11614;-76
2023/03/19 19:06:53;;;;;;;;;29.25;25.50;;;;;;;;5012863;28;11528;-73
2023/03/19 19:09:18;;;;;;;;;25.75;23.00;;;;;;;;5009350;28;8851;-75
2023/03/19 19:11:45;;;;;;;;;33.75;28.50;;;;;;;;5008047;28;11641;-73
2023/03/19 19:14:22;;;;;;;;;34.50;30.00;;;;;;;;5007517;28;8874;-73
2023/03/19 19:16:47;;;;;;;;;33.75;30.00;;;;;;;;5010952;28;11517;-75
2023/03/19 19:19:15;;;;;;;;;34.75;27.50;;;;;;;;5011976;28;11519;-73
2023/03/19 19:21:40;;;;;;;;;34.00;33.00;;;;;;;;5011928;28;8784;-72
2023/03/19 19:24:06;;;;;;;;;34.50;30.75;;;;;;;;5012700;28;11623;-72
2023/03/19 19:26:31;;;;;;;;;30.00;28.50;;;;;;;;5012966;28;8857;-72
2023/03/19 19:28:59;;;;;;;;;30.75;29.25;;;;;;;;5012392;28;8905;-74
2023/03/19 19:31:25;;;;;;;;;38.00;31.00;;;;;;;;5013195;28;8781;-75
2023/03/19 19:33:58;;;;;;;;;33.25;31.75;;;;;;;;5011205;28;11644;-74
2023/03/19 19:36:24;;;;;;;;;32.25;32.00;;;;;;;;5010704;28;12326;-73
2023/03/19 19:38:56;;;;;;;;;37.25;35.50;;;;;;;;5008166;28;11665;-71
2023/03/19 19:41:22;;;;;;;;;39.75;34.25;;;;;;;;5011267;28;8808;-71
2023/03/19 19:44:00;;;;;;;;;35.25;31.25;;;;;;;;5010150;28;11921;-69
2023/03/19 19:46:25;;;;;;;;;27.50;27.50;;;;;;;;5008764;28;11754;-75
2023/03/19 19:48:51;;;;;;;;;28.25;21.75;;;;;;;;5010889;28;11609;-70
2023/03/19 19:51:24;;;;;;;;;32.50;26.25;;;;;;;;5012901;28;8967;-75
2023/03/19 19:53:49;;;;;;;;;40.25;39.50;;;;;;;;5029372;28;8825;-70
2023/03/19 19:56:17;;;;;;;;;35.00;32.75;;;;;;;;5023729;28;11580;-70
2023/03/19 19:58:42;;;;;;;;;38.75;36.75;;;;;;;;5011000;28;8921;-75
2023/03/19 20:01:18;;;;;;;;;39.75;37.50;;;;;;;;5011377;28;11651;-72
2023/03/19 20:03:44;;;;;;;;;35.25;31.50;;;;;;;;5011669;28;8811;-73
2023/03/19 20:06:10;;;;;;;;;34.00;32.25;;;;;;;;5011605;28;11672;-74
2023/03/19 20:08:35;;;;;;;;;42.75;33.50;;;;;;;;5009975;28;11624;-68
2023/03/19 20:11:01;;;;;;;;;35.75;29.00;;;;;;;;5011895;28;8815;-72
2023/03/19 20:13:33;;;;;;;;;45.50;36.50;;;;;;;;5011440;28;8824;-71
2023/03/19 20:15:59;;;;;;;;;41.25;35.50;;;;;;;;5011725;28;8846;-69
2023/03/19 20:18:27;;;;;;;;;40.25;37.75;;;;;;;;5011394;28;11683;-68
2023/03/19 20:20:53;;;;;;;;;39.50;35.50;;;;;;;;5010751;28;11675;-68
2023/03/19 20:23:19;;;;;;;;;44.00;39.00;;;;;;;;5012409;28;11702;-69
2023/03/19 20:25:45;;;;;;;;;50.67;45.00;;;;;;;;5011111;28;8906;-69
2023/03/19 20:28:20;;;;;;;;;46.75;42.75;;;;;;;;5010732;28;11547;-69
2023/03/19 20:30:47;;;;;;;;;44.50;42.00;;;;;;;;5009454;28;8828;-68
2023/03/19 20:33:12;;;;;;;;;39.50;39.50;;;;;;;;5009441;28;11663;-69
2023/03/19 20:35:37;;;;;;;;;36.50;36.50;;;;;;;;5011448;28;11661;-68
2023/03/19 20:38:04;;;;;;;;;45.50;38.25;;;;;;;;5010817;28;8815;-67
2023/03/19 20:40:33;;;;;;;;;38.75;37.25;;;;;;;;5011174;28;9491;-69
2023/03/19 20:43:00;;;;;;;;;44.50;40.25;;;;;;;;5006896;28;11787;-67
2023/03/19 20:45:29;;;;;;;;;45.25;40.75;;;;;;;;5009803;28;11675;-66
2023/03/19 20:47:58;;;;;;;;;50.75;43.00;;;;;;;;5007777;28;11565;-67
2023/03/19 20:50:26;;;;;;;;;41.75;38.00;;;;;;;;5024696;28;11556;-68
2023/03/19 20:52:54;;;;;;;;;47.50;42.00;;;;;;;;5006982;28;11617;-66
2023/03/19 20:55:20;;;;;;;;;49.00;42.00;;;;;;;;4991703;28;11617;-67
2023/03/19 20:57:47;;;;;;;;;49.25;42.00;;;;;;;;5008418;28;11593;-68
2023/03/19 21:00:23;;;;;;;;;43.00;40.75;;;;;;;;5008036;28;11539;-68
2023/03/19 21:02:50;;;;;;;;;48.25;40.00;;;;;;;;5007283;28;11572;-69
2023/03/19 21:05:15;;;;;;;;;45.00;42.25;;;;;;;;5010888;28;11668;-70
2023/03/19 21:07:42;;;;;;;;;45.67;43.00;;;;;;;;5006807;28;11547;-71
2023/03/19 21:10:16;;;;;;;;;47.00;42.00;;;;;;;;5010820;28;9515;-72
2023/03/19 21:12:42;;;;;;;;;49.00;41.75;;;;;;;;5005215;28;11538;-72
2023/03/19 21:15:12;;;;;;;;;48.50;42.00;;;;;;;;5010494;28;12382;-71
2023/03/19 21:17:38;;;;;;;;;50.00;42.25;;;;;;;;5010497;28;8815;-74
2023/03/19 21:20:03;;;;;;;;;49.67;43.33;;;;;;;;5008785;28;11534;-74
2023/03/19 21:22:30;;;;;;;;;52.00;43.00;;;;;;;;5008460;28;8859;-73
2023/03/19 21:25:02;;;;;;;;;57.33;47.33;;;;;;;;5008620;28;8836;-73
2023/03/19 21:27:27;;;;;;;;;51.67;44.00;;;;;;;;5007584;28;11505;-74
2023/03/19 21:29:53;;;;;;;;;55.25;43.00;;;;;;;;5008414;28;11649;-73
2023/03/19 21:32:18;;;;;;;;;51.33;42.67;;;;;;;;5008699;28;8832;-71
2023/03/19 21:34:47;;;;;;;;;28.00;22.33;;;;;;;;5010312;28;8811;-71
2023/03/19 21:37:16;;;;;;;;;50.00;42.50;;;;;;;;5010070;28;8827;-72
2023/03/19 21:39:41;;;;;;;;;40.50;37.00;;;;;;;;5011806;28;11533;-71
2023/03/19 21:42:10;;;;;;;;;36.50;31.75;;;;;;;;5007573;28;11699;-72
2023/03/19 21:44:36;;;;;;;;;41.25;40.75;;;;;;;;5010186;28;8918;-71
2023/03/19 21:47:02;;;;;;;;;52.50;44.50;;;;;;;;5004873;28;11550;-71
2023/03/19 21:49:28;;;;;;;;;42.00;38.75;;;;;;;;5010100;28;9507;-71
2023/03/19 21:51:55;;;;;;;;;52.25;43.00;;;;;;;;5006776;28;9897;-71
2023/03/19 21:54:21;;;;;;;;;45.00;38.00;;;;;;;;5010050;28;12341;-71
2023/03/19 21:56:46;;;;;;;;;35.00;32.50;;;;;;;;5010053;28;11540;-72
2023/03/19 21:59:13;;;;;;;;;40.50;38.75;;;;;;;;5010399;28;8841;-71
2023/03/19 22:01:39;;;;;;;;;43.00;39.25;;;;;;;;5010600;28;8815;-69
2023/03/19 22:04:05;;;;;;;;;46.50;36.50;;;;;;;;5010089;28;11612;-70
2023/03/19 22:06:30;;;;;;;;;40.50;35.00;;;;;;;;5008248;28;11560;-70
2023/03/19 22:08:55;;;;;;;;;33.25;31.25;;;;;;;;4992981;28;8892;-69
2023/03/19 22:11:25;;;;;;;;;33.00;32.00;;;;;;;;4990413;28;8818;-69
2023/03/19 22:13:51;;;;;;;;;28.00;27.00;;;;;;;;4990635;28;8901;-69
2023/03/19 22:16:21;;;;;;;;;32.00;29.00;;;;;;;;4990366;28;11546;-69
2023/03/19 22:18:47;;;;;;;;;38.50;31.50;;;;;;;;4989231;28;8830;-70
2023/03/19 22:21:14;;;;;;;;;30.50;30.50;;;;;;;;4990501;28;11578;-69
2023/03/19 22:23:39;;;;;;;;;28.75;25.00;;;;;;;;4990462;28;8884;-69
2023/03/19 22:26:19;;;;;;;;;33.25;33.25;;;;;;;;4990234;28;12340;-68
2023/03/19 22:28:45;;;;;;;;;37.75;34.00;;;;;;;;4990246;28;9517;-68
2023/03/19 22:31:10;;;;;;;;;37.00;32.00;;;;;;;;4990246;28;11567;-68
2023/03/19 22:33:36;;;;;;;;;46.00;38.50;;;;;;;;4990279;28;8821;-70
2023/03/19 22:36:01;;;;;;;;;37.75;35.25;;;;;;;;4990297;28;8841;-69
2023/03/19 22:38:26;;;;;;;;;42.25;37.25;;;;;;;;4990051;28;8799;-68
2023/03/19 22:40:53;;;;;;;;;43.00;41.50;;;;;;;;4990156;28;8779;-69
2023/03/19 22:43:45;;;;;;;;;41.75;38.25;;;;;;;;4990061;28;8799;-69
2023/03/19 22:46:12;;;;;;;;;45.25;37.25;;;;;;;;4989555;28;11572;-68
2023/03/19 22:48:37;;;;;;;;;48.25;44.50;;;;;;;;4989949;28;11551;-69
2023/03/19 22:51:04;;;;;;;;;52.00;45.00;;;;;;;;4989813;28;11546;-68
2023/03/19 22:53:30;;;;;;;;;46.00;42.25;;;;;;;;4989976;28;9668;-68
2023/03/19 22:55:56;;;;;;;;;52.00;43.25;;;;;;;;4989852;28;11688;-68
2023/03/19 22:58:22;;;;;;;;;46.50;42.00;;;;;;;;4989833;28;11575;-68
2023/03/19 23:00:47;;;;;;;;;56.50;47.00;;;;;;;;4989959;28;8826;-68
2023/03/19 23:03:18;;;;;;;;;49.75;42.75;;;;;;;;4989796;28;8794;-67
2023/03/19 23:05:45;;;;;;;;;41.00;37.25;;;;;;;;4990125;28;8814;-68
2023/03/19 23:08:14;;;;;;;;;50.00;42.00;;;;;;;;4990098;28;11615;-69
2023/03/19 23:10:42;;;;;;;;;47.25;40.50;;;;;;;;4990031;28;11670;-69
2023/03/19 23:13:07;;;;;;;;;42.75;37.50;;;;;;;;4989923;28;11540;-68
2023/03/19 23:15:33;;;;;;;;;44.50;35.50;;;;;;;;4989966;28;11588;-69
2023/03/19 23:17:59;;;;;;;;;42.25;41.25;;;;;;;;4990220;28;8900;-69
2023/03/19 23:20:26;;;;;;;;;44.50;41.00;;;;;;;;4990002;28;8908;-69
2023/03/19 23:22:52;;;;;;;;;45.00;42.00;;;;;;;;4990016;28;8806;-68
2023/03/19 23:25:19;;;;;;;;;31.00;29.25;;;;;;;;4988299;28;11684;-70
2023/03/19 23:27:45;;;;;;;;;33.25;30.00;;;;;;;;4989098;28;11774;-68
2023/03/19 23:30:28;;;;;;;;;25.50;24.00;;;;;;;;5030252;23;11770;-79
2023/03/19 23:32:54;;;;;;;;;26.25;21.75;;;;;;;;5010400;28;11514;-80
2023/03/19 23:35:21;;;;;;;;;21.50;18.25;;;;;;;;5009084;28;11018;-80
2023/03/19 23:37:47;;;;;;;;;18.75;17.00;;;;;;;;5010477;28;11007;-78
2023/03/19 23:40:13;;;;;;;;;23.00;19.00;;;;;;;;5010263;28;11512;-77
2023/03/19 23:42:40;;;;;;;;;25.00;18.75;;;;;;;;5010352;28;8804;-78
2023/03/19 23:45:09;;;;;;;;;19.00;19.00;;;;;;;;5008657;28;11652;-77
2023/03/19 23:47:35;;;;;;;;;15.00;14.00;;;;;;;;5010229;28;11488;-79
2023/03/19 23:50:00;;;;;;;;;14.50;14.50;;;;;;;;5010205;28;11530;-79
2023/03/19 23:52:25;;;;;;;;;19.75;13.25;;;;;;;;5010305;28;8794;-78
2023/03/19 23:54:51;;;;;;;;;15.50;15.50;;;;;;;;5010197;28;8950;-79
2023/03/19 23:57:16;;;;;;;;;16.75;14.25;;;;;;;;5010209;28;8800;-77
2023/03/19 23:59:42;;;;;;;;;19.00;14.75;;;;;;;;5010098;28;8800;-77
